Latest Weather Observations for Cape Otway

IDV60801

Issued at 5:52 pm EST Wednesday 26 June 2019 (issued every 10 minutes, with the page automatically refreshed every 10 minutes)

About weather observations | Map of weather stations | Latest weather observations for VIC | Other Formats
Station Details ID: 090015 Name: CAPE OTWAY LIGHTHOUSE Lat: -38.86 Lon: 143.51 Height: 82.0 m
Data from the previous 72 hours. | See also: Recent months at Cape Otway
Date/Time
EST
Temp
°C
App
Temp
°C
Dew
Point
°C
Rel
Hum
%
Delta-T
°C
Wind Press
QNH
hPa
Press
MSL
hPa
Rain since
9am
mm
Dir  Spd
km/h
Gust
km/h
Spd
kts
Gust
kts
26/05:30pm 12.3 9.5 7.0 70 2.6 NE 11 13 6 7 1031.5 1031.6 0.0
26/05:00pm 13.1 10.3 6.9 66 3.0 NE 11 13 6 7 1031.3 1031.4 0.0
26/04:30pm 14.6 12.3 7.4 62 3.6 NNE 9 11 5 6 1031.4 1031.5 0.0
26/04:00pm 15.2 11.7 7.0 58 4.0 N 15 22 8 12 1031.5 1031.6 0.0
26/03:30pm 16.4 14.1 7.3 55 4.5 NNE 9 19 5 10 1031.6 1031.7 0.0
26/03:00pm 16.4 13.2 6.8 53 4.7 N 13 24 7 13 1031.7 1031.8 0.0
26/02:30pm 16.7 13.4 6.2 50 5.1 N 13 17 7 9 1031.9 1032.0 0.0
26/02:00pm 16.8 13.0 6.0 49 5.2 N 15 24 8 13 1032.2 1032.3 0.0
26/01:30pm 16.7 12.4 5.3 47 5.5 N 17 24 9 13 1032.4 1032.5 0.0
26/01:00pm 16.6 13.2 6.1 50 5.1 N 13 22 7 12 1032.8 1032.9 0.0
26/12:30pm 16.6 13.3 6.4 51 5.0 N 13 24 7 13 1033.3 1033.4 0.0
26/12:00pm 15.7 13.2 8.2 61 3.8 NE 11 22 6 12 1033.9 1034.0 0.0
26/11:30am 14.0 11.8 8.0 67 3.0 E 9 15 5 8 1034.3 1034.4 0.0
26/11:00am 13.9 11.7 7.7 66 3.0 E 9 13 5 7 1034.5 1034.6 0.0
26/10:30am 13.2 11.2 7.0 66 3.0 ESE 7 11 4 6 1034.7 1034.8 0.0
26/10:00am 12.9 10.8 6.5 65 3.0 ESE 7 13 4 7 1034.7 1034.8 0.0
26/09:30am 12.9 10.0 6.3 64 3.1 NE 11 15 6 8 1034.6 1034.7 0.0
26/09:00am 12.3 8.9 5.7 64 3.1 NNE 13 17 7 9 1034.5 1034.6 0.0
26/08:30am 11.4 6.5 5.3 66 2.8 N 20 28 11 15 1034.3 1034.4 0.0
26/08:00am 10.5 5.6 5.1 69 2.4 N 20 26 11 14 1034.2 1034.3 0.0
26/07:30am 10.3 5.4 5.3 71 2.3 N 20 26 11 14 1034.0 1034.1 0.0
26/07:00am 10.2 5.4 5.6 73 2.1 N 20 24 11 13 1033.9 1034.0 0.0
26/06:30am 9.6 5.4 5.8 77 1.7 N 17 22 9 12 1033.8 1033.9 0.0
26/06:00am 8.6 5.7 4.8 77 1.7 NNW 9 13 5 7 1033.8 1033.9 0.0
26/05:30am 8.6 5.3 4.6 76 1.8 WNW 11 15 6 8 1033.5 1033.6 0.0
26/05:00am 9.2 6.7 4.6 73 2.0 WNW 7 11 4 6 1033.4 1033.5 0.0
26/04:30am 10.2 7.0 5.2 71 2.3 N 11 20 6 11 1033.3 1033.4 0.0
26/04:00am 10.5 5.7 5.5 71 2.3 N 20 26 11 14 1033.0 1033.1 0.0
26/03:30am 10.6 5.8 5.6 71 2.3 N 20 26 11 14 1033.0 1033.1 0.0
26/03:00am 10.5 5.3 5.7 72 2.2 N 22 26 12 14 1032.9 1033.0 0.0
26/02:30am 10.6 5.5 6.0 73 2.1 N 22 28 12 15 1033.0 1033.1 0.0
26/02:00am 10.6 5.9 6.0 73 2.1 N 20 24 11 13 1033.1 1033.2 0.0
26/01:30am 10.5 5.8 6.1 74 2.1 N 20 28 11 15 1033.0 1033.1 0.0
26/01:00am 10.5 5.9 6.5 76 1.9 N 20 24 11 13 1033.1 1033.2 0.0
26/12:30am 10.0 4.6 6.5 79 1.6 N 24 28 13 15 1033.3 1033.4 0.0
26/12:00am 8.3 4.4 5.4 82 1.3 N 15 20 8 11 1033.7 1033.8 0.0
 
Date/Time
EST
Temp
°C
App
Temp
°C
Dew
Point
°C
Rel
Hum
%
Delta-T
°C
Wind Press
QNH
hPa
Press
MSL
hPa
Rain since
9am
mm
Dir  Spd
km/h
Gust
km/h
Spd
kts
Gust
kts
25/11:30pm 6.8 4.3 3.9 82 1.2 N 6 9 3 5 1034.0 1034.1 0.0
25/11:00pm 7.0 5.6 3.8 80 1.4 CALM 0 0 0 0 1033.8 1033.9 0.0
25/10:30pm 7.6 6.3 4.0 78 1.6 CALM 0 7 0 4 1033.6 1033.7 0.0
25/10:00pm 7.6 5.0 4.0 78 1.5 NNE 7 9 4 5 1033.5 1033.6 0.0
25/09:30pm 7.1 5.6 3.2 76 1.6 CALM 0 0 0 0 1033.6 1033.7 0.0
25/09:00pm 7.1 5.6 2.8 74 1.8 CALM 0 0 0 0 1033.5 1033.6 0.0
25/08:30pm 8.6 6.5 3.8 72 2.1 N 4 6 2 3 1033.4 1033.5 0.0
25/08:00pm 10.3 7.9 5.3 71 2.3 NNE 7 11 4 6 1033.3 1033.4 0.0
25/07:30pm 10.6 6.4 5.6 71 2.3 NNE 17 19 9 10 1033.1 1033.2 0.0
25/07:00pm 10.9 7.1 5.9 71 2.3 NNE 15 17 8 9 1033.1 1033.2 0.0
25/06:30pm 10.7 7.3 5.7 71 2.3 NE 13 15 7 8 1032.9 1033.0 0.0
25/06:00pm 10.5 7.4 5.5 71 2.3 NNE 11 13 6 7 1032.9 1033.0 0.0
25/05:30pm 11.6 8.2 6.1 69 2.6 NNE 13 15 7 8 1032.8 1032.9 0.0
25/05:00pm 12.2 9.6 6.0 66 2.9 NE 9 11 5 6 1032.7 1032.8 0.0
25/04:30pm 13.8 11.6 6.4 61 3.6 NE 7 9 4 5 1032.6 1032.7 0.0
25/04:00pm 15.2 14.2 7.3 59 3.9 NW 2 7 1 4 1032.5 1032.6 0.0
25/03:30pm 14.9 12.4 6.5 57 4.1 WNW 9 11 5 6 1032.5 1032.6 0.0
25/03:00pm 15.0 12.2 6.8 58 4.0 W 11 13 6 7 1032.5 1032.6 0.0
25/02:30pm 15.2 11.8 5.7 53 4.6 N 13 19 7 10 1032.3 1032.4 0.0
25/02:00pm 15.3 11.9 5.8 53 4.5 N 13 22 7 12 1032.2 1032.3 0.0
25/01:30pm 15.2 11.3 5.4 52 4.7 N 15 20 8 11 1032.3 1032.4 0.0
25/01:00pm 14.9 10.6 5.1 52 4.6 NNW 17 26 9 14 1032.8 1032.9 0.0
25/12:30pm 15.1 11.5 4.8 50 4.8 N 13 22 7 12 1032.9 1033.0 0.0
25/12:00pm 15.0 11.3 4.7 50 4.8 N 13 22 7 12 1033.1 1033.2 0.0
25/11:30am 14.3 9.2 2.9 46 5.1 N 19 26 10 14 1033.4 1033.5 0.0
25/11:00am 13.8 9.7 2.4 46 5.0 NNE 13 20 7 11 1033.6 1033.7 0.0
25/10:30am 12.1 7.3 2.6 52 4.2 N 17 24 9 13 1033.6 1033.7 0.0
25/10:00am 12.9 8.0 2.2 48 4.6 N 17 24 9 13 1033.6 1033.7 0.0
25/09:30am 12.6 7.4 2.5 50 4.4 NNW 19 24 10 13 1033.7 1033.8 0.0
25/09:00am 11.4 6.6 2.4 54 3.8 NNW 17 26 9 14 1033.8 1033.9 0.0
25/08:30am 10.3 5.6 1.2 53 3.8 NNW 15 19 8 10 1033.5 1033.6 0.0
25/08:00am 9.2 4.8 0.6 55 3.5 N 13 17 7 9 1033.2 1033.3 0.0
25/07:30am 9.3 5.2 -0.3 51 3.8 N 11 15 6 8 1032.9 1033.0 0.0
25/07:00am 9.4 4.9 -0.5 50 3.9 N 13 19 7 10 1032.6 1032.7 0.0
25/06:30am 7.7 4.0 0.2 59 3.0 NNW 9 13 5 7 1032.4 1032.5 0.0
25/06:00am 8.6 5.1 1.1 59 3.0 NNW 9 13 5 7 1032.2 1032.3 0.0
25/05:30am 7.3 3.7 0.7 63 2.6 NNE 9 11 5 6 1032.0 1032.1 0.0
25/05:00am 6.5 3.9 0.8 67 2.2 WSW 4 6 2 3 1031.9 1032.0 0.0
25/04:30am 9.6 5.3 1.0 55 3.5 NNE 13 15 7 8 1031.7 1031.8 0.0
25/04:00am 8.9 5.0 1.1 58 3.2 NE 11 15 6 8 1031.6 1031.7 0.0
25/03:30am 8.9 4.6 1.1 58 3.2 NE 13 17 7 9 1031.7 1031.8 0.0
25/03:00am 9.2 4.9 1.1 57 3.3 NNE 13 15 7 8 1031.7 1031.8 0.0
25/02:30am 7.4 4.4 0.8 63 2.6 WNW 6 9 3 5 1031.8 1031.9 0.0
25/02:00am 9.9 4.6 1.8 57 3.4 NNE 19 20 10 11 1031.6 1031.7 0.0
25/01:30am 9.3 4.8 2.2 61 3.0 NE 15 20 8 11 1031.7 1031.8 0.0
25/01:00am 9.1 4.9 1.8 60 3.0 NE 13 20 7 11 1031.8 1031.9 0.0
25/12:30am 8.7 4.6 2.1 63 2.8 NNE 13 15 7 8 1032.1 1032.2 0.0
25/12:00am 9.1 4.6 2.4 63 2.8 NE 15 17 8 9 1032.2 1032.3 0.0
 
Date/Time
EST
Temp
°C
App
Temp
°C
Dew
Point
°C
Rel
Hum
%
Delta-T
°C
Wind Press
QNH
hPa
Press
MSL
hPa
Rain since
9am
mm
Dir  Spd
km/h
Gust
km/h
Spd
kts
Gust
kts
24/11:30pm 8.5 4.3 1.9 63 2.7 NNE 13 15 7 8 1032.6 1032.7 0.0
24/11:00pm 9.1 4.6 2.0 61 2.9 NNE 15 17 8 9 1032.5 1032.6 0.0
24/10:30pm 9.3 4.8 1.9 60 3.1 NE 15 17 8 9 1032.3 1032.4 0.0
24/10:00pm 8.6 3.9 3.0 68 2.4 NNE 17 19 9 10 1032.1 1032.2 0.0
24/09:30pm 8.5 3.7 2.7 67 2.5 NE 17 20 9 11 1032.0 1032.1 0.0
24/09:00pm 8.5 4.0 1.9 63 2.7 NE 15 19 8 10 1032.0 1032.1 0.0
24/08:30pm 8.6 4.3 1.1 59 3.1 NE 13 17 7 9 1032.0 1032.1 0.0
24/08:00pm 9.2 5.2 2.8 64 2.7 NNE 13 17 7 9 1032.1 1032.2 0.0
24/07:30pm 8.0 3.6 2.9 70 2.2 NNE 15 17 8 9 1032.1 1032.2 0.0
24/07:00pm 6.9 2.4 2.2 72 1.9 N 15 17 8 9 1031.9 1032.0 0.0
24/06:30pm 8.2 4.3 3.3 71 2.1 N 13 17 7 9 1031.6 1031.7 0.0
24/06:00pm 8.8 5.1 4.2 73 2.0 NNE 13 17 7 9 1031.3 1031.4 0.0
24/05:30pm 9.0 5.3 4.4 73 2.0 NE 13 15 7 8 1031.3 1031.4 0.0
24/05:00pm 9.6 5.5 4.6 71 2.2 NE 15 17 8 9 1031.1 1031.2 0.0
24/04:30pm 10.6 7.0 5.2 69 2.5 ENE 13 15 7 8 1031.2 1031.3 0.0
24/04:00pm 11.6 8.8 5.3 65 2.9 E 9 13 5 7 1031.4 1031.5 0.0
24/03:30pm 12.3 9.8 5.0 61 3.4 E 7 9 4 5 1031.4 1031.5 0.0
24/03:00pm 12.1 9.6 3.9 57 3.7 SE 6 7 3 4 1031.4 1031.5 0.0
24/02:30pm 12.5 10.1 4.5 58 3.7 SE 6 7 3 4 1031.3 1031.4 0.0
24/02:00pm 12.1 9.6 3.9 57 3.7 SSE 6 7 3 4 1031.4 1031.5 0.0
24/01:30pm 12.4 10.2 5.3 62 3.3 SSE 6 7 3 4 1031.6 1031.7 0.0
24/01:00pm 12.0 9.9 5.6 65 3.0 NE 6 7 3 4 1031.9 1032.0 0.0
24/12:30pm 11.7 9.4 5.6 66 2.8 NE 7 11 4 6 1031.9 1032.0 0.0
24/12:00pm 12.1 9.9 5.5 64 3.0 E 6 9 3 5 1032.2 1032.3 0.0
24/11:30am 11.6 9.3 5.9 68 2.7 SW 7 11 4 6 1032.5 1032.6 0.0
24/11:00am 11.0 7.4 4.9 66 2.8 NE 13 19 7 10 1032.4 1032.5 0.0
24/10:30am 10.5 5.9 5.5 71 2.3 NE 19 24 10 13 1032.4 1032.5 0.0
24/10:00am 9.9 5.0 5.1 72 2.2 ENE 20 30 11 16 1032.3 1032.4 0.0
24/09:30am 9.4 4.3 4.2 70 2.3 NE 20 30 11 16 1032.4 1032.5 0.0
24/09:00am 8.7 3.5 3.3 69 2.3 NE 20 26 11 14 1032.6 1032.7 0.2
24/08:30am 8.0 3.0 3.5 73 1.9 NE 19 24 10 13 1032.8 1032.9 0.2
24/08:00am 7.3 2.1 3.4 76 1.6 NE 20 24 11 13 1032.7 1032.8 0.2
24/07:30am 7.3 2.1 3.7 78 1.5 NE 20 24 11 13 1032.6 1032.7 0.2
24/07:00am 7.2 2.3 4.2 81 1.3 NE 19 22 10 12 1032.5 1032.6 0.2
24/06:30am 7.1 2.6 4.4 83 1.2 NNE 17 20 9 11 1032.5 1032.6 0.2
24/06:00am 7.2 3.2 4.7 84 1.1 NNE 15 19 8 10 1032.4 1032.5 0.2
24/05:30am 5.8 1.9 3.3 84 1.0 N 13 15 7 8 1032.6 1032.7 0.2
24/05:00am 6.6 3.2 3.9 83 1.1 NNE 11 13 6 7 1032.4 1032.5 0.2
24/04:30am 6.6 2.8 4.1 84 1.1 N 13 13 7 7 1032.5 1032.6 0.2
24/04:00am 6.3 2.4 3.6 83 1.1 N 13 15 7 8 1032.5 1032.6 0.2
24/03:30am 5.8 2.6 3.0 82 1.2 N 9 13 5 7 1032.7 1032.8 0.2
24/03:00am 5.9 2.7 3.1 82 1.2 NNE 9 11 5 6 1032.7 1032.8 0.0
24/02:30am 6.7 3.3 3.9 82 1.2 NNE 11 13 6 7 1032.5 1032.6 0.0
24/02:00am 6.8 3.0 4.1 83 1.2 NE 13 17 7 9 1032.4 1032.5 0.0
24/01:30am 6.2 2.4 3.7 84 1.1 NNE 13 15 7 8 1032.5 1032.6 0.0
24/01:00am 6.0 2.1 3.5 84 1.0 NNE 13 15 7 8 1032.7 1032.8 0.0
24/12:30am 6.5 2.7 4.0 84 1.1 NNE 13 15 7 8 1032.9 1033.0 0.0
24/12:00am 6.2 3.1 3.5 83 1.1 NNE 9 11 5 6 1032.9 1033.0 0.0
 
Date/Time
EST
Temp
°C
App
Temp
°C
Dew
Point
°C
Rel
Hum
%
Delta-T
°C
Wind Press
QNH
hPa
Press
MSL
hPa
Rain since
9am
mm
Dir  Spd
km/h
Gust
km/h
Spd
kts
Gust
kts
23/11:30pm 7.4 4.2 4.9 84 1.1 NE 11 13 6 7 1032.5 1032.6 0.0
23/11:00pm 6.9 3.2 4.2 83 1.2 NE 13 17 7 9 1032.3 1032.4 0.0
23/10:30pm 7.2 3.1 4.5 83 1.2 NNE 15 17 8 9 1032.2 1032.3 0.0
23/10:00pm 7.3 3.2 4.6 83 1.2 NNE 15 17 8 9 1032.5 1032.6 0.0
23/09:30pm 7.6 3.6 4.7 82 1.3 NNE 15 15 8 8 1032.6 1032.7 0.0
23/09:00pm 7.7 3.7 4.8 82 1.3 NNE 15 17 8 9 1032.6 1032.7 0.0
23/08:30pm 7.4 3.3 4.5 82 1.3 NNE 15 19 8 10 1032.3 1032.4 0.0
23/08:00pm 7.7 3.3 4.5 80 1.4 NNE 17 19 9 10 1032.2 1032.3 0.0
23/07:30pm 8.0 3.5 4.2 77 1.7 NNE 17 19 9 10 1032.1 1032.2 0.0
23/07:00pm 8.0 3.8 3.8 75 1.8 NNE 15 15 8 8 1031.9 1032.0 0.0
23/06:30pm 8.5 5.1 3.9 73 2.0 NE 11 13 6 7 1031.7 1031.8 0.0
23/06:00pm 8.6 5.2 3.8 72 2.1 NE 11 13 6 7 1031.6 1031.7 0.0

Other formats

Comma delimited format used in spreadsheet applications
http://www.bom.gov.au/fwo/IDV60801/IDV60801.94842.axf

JavaScript Object Notation format (JSON) in row-major order
http://www.bom.gov.au/fwo/IDV60801/IDV60801.94842.json

Data quality

Most of these data are generated automatically and are frequently updated. Quality checks on data are not normally performed. It is possible for incorrect values to appear. Refer to information at About Latest Weather Observations and please check the disclaimer before using these data.